PWSweather.com
Personal Weather Stations
Station Observations
SHAHALMS1
Eftra, Falkenberg, HA

EftraFalkenberg, HA

Lat: 56.85, Lon: 12.65

Elevation: 140

Station Type:

http://hem.passagen.se/risarp101

High Low Average
Temperature 48.6°F9.2°C 32.7°F0.4°C 41.6°F5.3°C
Dew Point 45.6°F7.6°C 26.6°F-3.0°C 37.8°F3.2°C
Winds 17.4 mph 28.0 kmh Calm Calm 9.0 mph WSW14.5 kmh WSW
Wind Gusts 33.3 mph53.6 kmh -- 18.0 mph29.0 kmh
Humidity 95% 77% 86%
Pressure 30.36 in1028.1 mb 30.18 in1022.0 mb -
Precipitation 0.05 in1.3 mm - -
Hour Temp Dew Point Humidity Winds Wind Gusts Pressure Precip Precip Rate Daily Precip Total
12:00 AM 34.0°F1.1°C 27.8°F-2.3°C 78% 0.4 mph W0.6 kmh W 5.0 mph8.0 kmh 30.30 in1026.1 mb 0.00 in0.0 mm 0.00 in0.0 mm 0.00 in0.0 mm
12:15 AM 33.8°F1.0°C 27.7°F-2.4°C 78% Calm Calm -- 30.30 in1026.1 mb 0.00 in0.0 mm 0.00 in0.0 mm 0.00 in0.0 mm
12:30 AM 33.1°F0.6°C 27.0°F-2.8°C 78% 1.7 mph W2.7 kmh W 6.4 mph10.3 kmh 30.30 in1026.1 mb 0.00 in0.0 mm 0.00 in0.0 mm 0.00 in0.0 mm
12:45 AM 32.7°F0.4°C 26.6°F-3.0°C 78% 4.1 mph W6.6 kmh W 6.8 mph10.9 kmh 30.27 in1025.1 mb 0.00 in0.0 mm 0.00 in0.0 mm 0.00 in0.0 mm
01:00 AM 33.3°F0.7°C 27.5°F-2.5°C 79% 4.9 mph W7.9 kmh W 7.9 mph12.7 kmh 30.27 in1025.1 mb 0.00 in0.0 mm 0.00 in0.0 mm 0.00 in0.0 mm
01:15 AM 34.5°F1.4°C 29.3°F-1.5°C 81% 5.7 mph W9.2 kmh W 10.0 mph16.1 kmh 30.27 in1025.1 mb 0.00 in0.0 mm 0.00 in0.0 mm 0.00 in0.0 mm
01:30 AM 35.4°F1.9°C 30.5°F-0.8°C 82% 6.1 mph W9.8 kmh W 10.0 mph16.1 kmh 30.27 in1025.1 mb 0.00 in0.0 mm 0.00 in0.0 mm 0.00 in0.0 mm
01:45 AM 36.0°F2.2°C 31.3°F-0.4°C 83% 6.2 mph WSW10.0 kmh WSW 11.5 mph18.5 kmh 30.27 in1025.1 mb 0.00 in0.0 mm 0.00 in0.0 mm 0.00 in0.0 mm
02:00 AM 36.1°F2.3°C 31.8°F-0.1°C 84% 5.8 mph W9.3 kmh W 10.4 mph16.7 kmh 30.27 in1025.1 mb 0.00 in0.0 mm 0.00 in0.0 mm 0.00 in0.0 mm
02:15 AM 36.5°F2.5°C 32.4°F0.2°C 85% 6.8 mph W10.9 kmh W 12.2 mph19.6 kmh 30.24 in1024.0 mb 0.00 in0.0 mm 0.00 in0.0 mm 0.00 in0.0 mm
02:30 AM 36.9°F2.7°C 33.1°F0.6°C 86% 7.5 mph WSW12.1 kmh WSW 14.3 mph23.0 kmh 30.24 in1024.0 mb 0.00 in0.0 mm 0.00 in0.0 mm 0.00 in0.0 mm
02:45 AM 37.2°F2.9°C 33.7°F0.9°C 87% 8.4 mph WSW13.5 kmh WSW 16.8 mph27.0 kmh 30.24 in1024.0 mb 0.00 in0.0 mm 0.00 in0.0 mm 0.00 in0.0 mm
03:00 AM 37.6°F3.1°C 34.1°F1.2°C 87% 8.1 mph WSW13.0 kmh WSW 16.1 mph25.9 kmh 30.24 in1024.0 mb 0.00 in0.0 mm 0.00 in0.0 mm 0.00 in0.0 mm
03:15 AM 37.8°F3.2°C 34.2°F1.2°C 87% 8.6 mph WSW13.8 kmh WSW 15.7 mph25.3 kmh 30.24 in1024.0 mb 0.00 in0.0 mm 0.00 in0.0 mm 0.00 in0.0 mm
03:30 AM 37.9°F3.3°C 34.4°F1.3°C 87% 9.3 mph SW15.0 kmh SW 17.5 mph28.2 kmh 30.21 in1023.0 mb 0.00 in0.0 mm 0.00 in0.0 mm 0.00 in0.0 mm
03:45 AM 38.1°F3.4°C 34.6°F1.4°C 87% 7.9 mph SW12.7 kmh SW 15.4 mph24.8 kmh 30.24 in1024.0 mb 0.00 in0.0 mm 0.00 in0.0 mm 0.00 in0.0 mm
04:00 AM 38.3°F3.5°C 34.8°F1.6°C 87% 10.3 mph SW16.6 kmh SW 25.8 mph41.5 kmh 30.24 in1024.0 mb 0.00 in0.0 mm 0.00 in0.0 mm 0.00 in0.0 mm
04:15 AM 38.7°F3.7°C 35.1°F1.7°C 87% 10.2 mph WSW16.4 kmh WSW 21.1 mph34.0 kmh 30.24 in1024.0 mb 0.00 in0.0 mm 0.00 in0.0 mm 0.00 in0.0 mm
04:30 AM 38.8°F3.8°C 35.3°F1.8°C 87% 11.2 mph SW18.0 kmh SW 25.1 mph40.4 kmh 30.24 in1024.0 mb 0.00 in0.0 mm 0.00 in0.0 mm 0.00 in0.0 mm
04:45 AM 38.8°F3.8°C 35.3°F1.8°C 87% 10.1 mph S16.3 kmh S 16.8 mph27.0 kmh 30.24 in1024.0 mb 0.00 in0.0 mm 0.00 in0.0 mm 0.00 in0.0 mm
05:00 AM 38.8°F3.8°C 35.3°F1.8°C 87% 9.2 mph SSW14.8 kmh SSW 17.2 mph27.7 kmh 30.21 in1023.0 mb 0.00 in0.0 mm 0.00 in0.0 mm 0.00 in0.0 mm
05:15 AM 39.0°F3.9°C 35.5°F1.9°C 87% 11.0 mph SSW17.7 kmh SSW 21.1 mph34.0 kmh 30.21 in1023.0 mb 0.00 in0.0 mm 0.00 in0.0 mm 0.00 in0.0 mm
05:31 AM 39.0°F3.9°C 35.5°F1.9°C 87% 9.2 mph SW14.8 kmh SW 19.7 mph31.7 kmh 30.21 in1023.0 mb 0.00 in0.0 mm 0.00 in0.0 mm 0.00 in0.0 mm
05:45 AM 39.2°F4.0°C 35.4°F1.9°C 86% 10.6 mph SW17.1 kmh SW 23.6 mph38.0 kmh 30.21 in1023.0 mb 0.00 in0.0 mm 0.00 in0.0 mm 0.00 in0.0 mm
06:00 AM 39.2°F4.0°C 35.1°F1.7°C 85% 9.9 mph SW15.9 kmh SW 17.5 mph28.2 kmh 30.21 in1023.0 mb 0.00 in0.0 mm 0.00 in0.0 mm 0.00 in0.0 mm
06:15 AM 39.4°F4.1°C 35.2°F1.8°C 85% 10.7 mph S17.2 kmh S 21.1 mph34.0 kmh 30.21 in1023.0 mb 0.00 in0.0 mm 0.00 in0.0 mm 0.00 in0.0 mm
06:30 AM 39.4°F4.1°C 35.5°F1.9°C 86% 11.7 mph SSW18.8 kmh SSW 23.6 mph38.0 kmh 30.21 in1023.0 mb 0.00 in0.0 mm 0.00 in0.0 mm 0.00 in0.0 mm
06:45 AM 39.6°F4.2°C 36.0°F2.2°C 87% 10.9 mph S17.5 kmh S 20.8 mph33.5 kmh 30.18 in1022.0 mb 0.00 in0.0 mm 0.00 in0.0 mm 0.00 in0.0 mm
07:00 AM 39.7°F4.3°C 36.2°F2.3°C 87% 11.1 mph SW17.9 kmh SW 21.1 mph34.0 kmh 30.18 in1022.0 mb 0.00 in0.0 mm 0.00 in0.0 mm 0.00 in0.0 mm
07:15 AM 39.7°F4.3°C 36.8°F2.7°C 89% 10.4 mph SSW16.7 kmh SSW 21.8 mph35.1 kmh 30.18 in1022.0 mb 0.00 in0.0 mm 0.00 in0.0 mm 0.00 in0.0 mm
07:30 AM 39.7°F4.3°C 37.3°F2.9°C 91% 12.7 mph SW20.4 kmh SW 26.8 mph43.1 kmh 30.18 in1022.0 mb 0.00 in0.0 mm 0.00 in0.0 mm 0.00 in0.0 mm
07:45 AM 39.9°F4.4°C 37.8°F3.2°C 92% 12.3 mph SW19.8 kmh SW 27.6 mph44.4 kmh 30.18 in1022.0 mb 0.00 in0.0 mm 0.00 in0.0 mm 0.00 in0.0 mm
08:00 AM 40.1°F4.5°C 38.0°F3.3°C 92% 10.4 mph WSW16.7 kmh WSW 20.4 mph32.8 kmh 30.18 in1022.0 mb 0.00 in0.0 mm 0.00 in0.0 mm 0.00 in0.0 mm
08:15 AM 40.1°F4.5°C 38.2°F3.4°C 93% 12.0 mph SW19.3 kmh SW 25.4 mph40.9 kmh 30.18 in1022.0 mb 0.00 in0.0 mm 0.00 in0.0 mm 0.00 in0.0 mm
08:30 AM 40.3°F4.6°C 38.4°F3.6°C 93% 11.5 mph SW18.5 kmh SW 29.7 mph47.8 kmh 30.18 in1022.0 mb 0.00 in0.0 mm 0.00 in0.0 mm 0.00 in0.0 mm
08:45 AM 40.5°F4.7°C 38.9°F3.8°C 94% 12.3 mph WSW19.8 kmh WSW 30.8 mph49.6 kmh 30.21 in1023.0 mb 0.05 in1.3 mm 0.20 in5.1 mm 0.05 in1.3 mm
09:00 AM 40.8°F4.9°C 39.2°F4.0°C 94% 12.5 mph WSW20.1 kmh WSW 27.2 mph43.8 kmh 30.18 in1022.0 mb 0.05 in1.3 mm 0.00 in0.0 mm 0.05 in1.3 mm
09:15 AM 41.0°F5.0°C 39.4°F4.1°C 94% 13.1 mph SW21.1 kmh SW 27.6 mph44.4 kmh 30.18 in1022.0 mb 0.05 in1.3 mm 0.00 in0.0 mm 0.05 in1.3 mm
09:30 AM 41.2°F5.1°C 39.6°F4.2°C 94% 14.7 mph WSW23.7 kmh WSW 32.2 mph51.8 kmh 30.21 in1023.0 mb 0.05 in1.3 mm 0.00 in0.0 mm 0.05 in1.3 mm
09:45 AM 41.4°F5.2°C 39.8°F4.3°C 94% 13.6 mph W21.9 kmh W 27.9 mph44.9 kmh 30.18 in1022.0 mb 0.00 in0.0 mm 0.00 in0.0 mm 0.05 in1.3 mm
10:00 AM 41.5°F5.3°C 40.2°F4.6°C 95% 13.5 mph WSW21.7 kmh WSW 27.6 mph44.4 kmh 30.21 in1023.0 mb 0.00 in0.0 mm 0.00 in0.0 mm 0.05 in1.3 mm
10:15 AM 41.9°F5.5°C 40.3°F4.6°C 94% 14.8 mph WSW23.8 kmh WSW 31.5 mph50.7 kmh 30.18 in1022.0 mb 0.00 in0.0 mm 0.00 in0.0 mm 0.05 in1.3 mm
10:30 AM 42.1°F5.6°C 40.5°F4.7°C 94% 15.1 mph W24.3 kmh W 27.6 mph44.4 kmh 30.18 in1022.0 mb 0.00 in0.0 mm 0.00 in0.0 mm 0.05 in1.3 mm
10:45 AM 42.3°F5.7°C 40.7°F4.8°C 94% 12.0 mph W19.3 kmh W 24.3 mph39.1 kmh 30.18 in1022.0 mb 0.00 in0.0 mm 0.00 in0.0 mm 0.05 in1.3 mm
11:00 AM 42.4°F5.8°C 40.8°F4.9°C 94% 14.0 mph W22.5 kmh W 24.7 mph39.8 kmh 30.21 in1023.0 mb 0.00 in0.0 mm 0.00 in0.0 mm 0.05 in1.3 mm
11:15 AM 43.2°F6.2°C 41.8°F5.4°C 95% 17.4 mph WSW28.0 kmh WSW 33.3 mph53.6 kmh 30.18 in1022.0 mb 0.00 in0.0 mm 0.00 in0.0 mm 0.05 in1.3 mm
11:30 AM 44.1°F6.7°C 42.7°F5.9°C 95% 15.7 mph W25.3 kmh W 30.1 mph48.4 kmh 30.21 in1023.0 mb 0.00 in0.0 mm 0.00 in0.0 mm 0.05 in1.3 mm
11:45 AM 44.6°F7.0°C 43.0°F6.1°C 94% 13.7 mph WSW22.0 kmh WSW 27.9 mph44.9 kmh 30.18 in1022.0 mb 0.00 in0.0 mm 0.00 in0.0 mm 0.05 in1.3 mm
12:00 PM 45.0°F7.2°C 43.3°F6.3°C 94% 11.2 mph W18.0 kmh W 19.3 mph31.1 kmh 30.21 in1023.0 mb 0.00 in0.0 mm 0.00 in0.0 mm 0.05 in1.3 mm
12:15 PM 45.5°F7.5°C 43.6°F6.4°C 93% 11.2 mph W18.0 kmh W 23.6 mph38.0 kmh 30.21 in1023.0 mb 0.00 in0.0 mm 0.00 in0.0 mm 0.05 in1.3 mm
12:30 PM 45.7°F7.6°C 43.5°F6.4°C 92% 8.3 mph W13.4 kmh W 17.2 mph27.7 kmh 30.21 in1023.0 mb 0.00 in0.0 mm 0.00 in0.0 mm 0.05 in1.3 mm
12:45 PM 46.6°F8.1°C 44.4°F6.9°C 92% 7.6 mph W12.2 kmh W 16.5 mph26.6 kmh 30.21 in1023.0 mb 0.00 in0.0 mm 0.00 in0.0 mm 0.05 in1.3 mm
01:00 PM 47.5°F8.6°C 45.3°F7.4°C 92% 8.2 mph W13.2 kmh W 17.2 mph27.7 kmh 30.24 in1024.0 mb 0.00 in0.0 mm 0.00 in0.0 mm 0.05 in1.3 mm
01:15 PM 48.4°F9.1°C 45.6°F7.6°C 90% 8.5 mph W13.7 kmh W 20.4 mph32.8 kmh 30.24 in1024.0 mb 0.00 in0.0 mm 0.00 in0.0 mm 0.05 in1.3 mm
01:30 PM 48.6°F9.2°C 44.9°F7.2°C 87% 9.6 mph W15.4 kmh W 21.1 mph34.0 kmh 30.24 in1024.0 mb 0.00 in0.0 mm 0.00 in0.0 mm 0.05 in1.3 mm
01:45 PM 48.4°F9.1°C 44.4°F6.9°C 86% 9.4 mph W15.1 kmh W 20.4 mph32.8 kmh 30.24 in1024.0 mb 0.00 in0.0 mm 0.00 in0.0 mm 0.05 in1.3 mm
02:00 PM 48.0°F8.9°C 43.7°F6.5°C 85% 9.7 mph W15.6 kmh W 20.4 mph32.8 kmh 30.21 in1023.0 mb 0.00 in0.0 mm 0.00 in0.0 mm 0.05 in1.3 mm
02:15 PM 48.2°F9.0°C 43.6°F6.4°C 84% 9.5 mph W15.3 kmh W 19.3 mph31.1 kmh 30.24 in1024.0 mb 0.00 in0.0 mm 0.00 in0.0 mm 0.05 in1.3 mm
02:30 PM 48.0°F8.9°C 43.1°F6.2°C 83% 10.4 mph W16.7 kmh W 27.6 mph44.4 kmh 30.21 in1023.0 mb 0.00 in0.0 mm 0.00 in0.0 mm 0.05 in1.3 mm
02:45 PM 48.0°F8.9°C 43.1°F6.2°C 83% 8.9 mph W14.3 kmh W 16.1 mph25.9 kmh 30.21 in1023.0 mb 0.00 in0.0 mm 0.00 in0.0 mm 0.05 in1.3 mm
03:00 PM 48.0°F8.9°C 43.1°F6.2°C 83% 8.9 mph W14.3 kmh W 16.1 mph25.9 kmh 30.21 in1023.0 mb 0.00 in0.0 mm 0.00 in0.0 mm 0.05 in1.3 mm
03:15 PM 48.0°F8.9°C 43.1°F6.2°C 83% 8.9 mph W14.3 kmh W 16.1 mph25.9 kmh 30.24 in1024.0 mb 0.00 in0.0 mm 0.00 in0.0 mm 0.05 in1.3 mm
03:30 PM 48.0°F8.9°C 43.1°F6.2°C 83% 8.9 mph W14.3 kmh W 16.1 mph25.9 kmh 30.24 in1024.0 mb 0.00 in0.0 mm 0.00 in0.0 mm 0.05 in1.3 mm
03:45 PM 47.1°F8.4°C 41.3°F5.2°C 80% 6.5 mph W10.5 kmh W 11.8 mph19.0 kmh 30.24 in1024.0 mb 0.00 in0.0 mm 0.00 in0.0 mm 0.05 in1.3 mm
04:00 PM 46.8°F8.2°C 40.6°F4.8°C 79% 6.4 mph W10.3 kmh W 16.8 mph27.0 kmh 30.24 in1024.0 mb 0.00 in0.0 mm 0.00 in0.0 mm 0.05 in1.3 mm
04:15 PM 46.2°F7.9°C 40.1°F4.5°C 79% 7.1 mph W11.4 kmh W 13.6 mph21.9 kmh 30.24 in1024.0 mb 0.00 in0.0 mm 0.00 in0.0 mm 0.05 in1.3 mm
04:30 PM 45.9°F7.7°C 39.1°F3.9°C 77% 7.8 mph W12.6 kmh W 16.5 mph26.6 kmh 30.27 in1025.1 mb 0.00 in0.0 mm 0.00 in0.0 mm 0.05 in1.3 mm
04:45 PM 45.5°F7.5°C 38.7°F3.7°C 77% 8.8 mph W14.2 kmh W 22.9 mph36.9 kmh 30.27 in1025.1 mb 0.00 in0.0 mm 0.00 in0.0 mm 0.05 in1.3 mm
05:00 PM 45.3°F7.4°C 38.5°F3.6°C 77% 7.4 mph W11.9 kmh W 15.7 mph25.3 kmh 30.27 in1025.1 mb 0.00 in0.0 mm 0.00 in0.0 mm 0.05 in1.3 mm
05:15 PM 44.8°F7.1°C 38.0°F3.3°C 77% 8.6 mph W13.8 kmh W 16.1 mph25.9 kmh 30.27 in1025.1 mb 0.00 in0.0 mm 0.00 in0.0 mm 0.05 in1.3 mm
05:30 PM 44.4°F6.9°C 38.0°F3.3°C 78% 8.7 mph W14.0 kmh W 17.2 mph27.7 kmh 30.27 in1025.1 mb 0.00 in0.0 mm 0.00 in0.0 mm 0.05 in1.3 mm
05:45 PM 44.1°F6.7°C 37.6°F3.1°C 78% 6.9 mph W11.1 kmh W 16.8 mph27.0 kmh 30.27 in1025.1 mb 0.00 in0.0 mm 0.00 in0.0 mm 0.05 in1.3 mm
06:00 PM 43.3°F6.3°C 37.3°F2.9°C 79% 5.6 mph W9.0 kmh W 10.0 mph16.1 kmh 30.27 in1025.1 mb 0.00 in0.0 mm 0.00 in0.0 mm 0.05 in1.3 mm
06:15 PM 42.8°F6.0°C 37.1°F2.8°C 80% 7.0 mph W11.3 kmh W 14.0 mph22.5 kmh 30.27 in1025.1 mb 0.00 in0.0 mm 0.00 in0.0 mm 0.05 in1.3 mm
06:30 PM 42.8°F6.0°C 37.7°F3.2°C 82% 7.3 mph W11.7 kmh W 12.5 mph20.1 kmh 30.27 in1025.1 mb 0.00 in0.0 mm 0.00 in0.0 mm 0.05 in1.3 mm
06:45 PM 43.0°F6.1°C 37.9°F3.3°C 82% 8.2 mph W13.2 kmh W 16.1 mph25.9 kmh 30.27 in1025.1 mb 0.00 in0.0 mm 0.00 in0.0 mm 0.05 in1.3 mm
07:00 PM 43.0°F6.1°C 37.9°F3.3°C 82% 7.5 mph W12.1 kmh W 16.8 mph27.0 kmh 30.30 in1026.1 mb 0.00 in0.0 mm 0.00 in0.0 mm 0.05 in1.3 mm
07:15 PM 43.2°F6.2°C 38.0°F3.3°C 82% 8.7 mph W14.0 kmh W 17.9 mph28.8 kmh 30.30 in1026.1 mb 0.00 in0.0 mm 0.00 in0.0 mm 0.05 in1.3 mm
07:30 PM 43.2°F6.2°C 38.0°F3.3°C 82% 7.7 mph W12.4 kmh W 12.9 mph20.8 kmh 30.30 in1026.1 mb 0.00 in0.0 mm 0.00 in0.0 mm 0.05 in1.3 mm
07:45 PM 42.6°F5.9°C 37.5°F3.1°C 82% 6.2 mph W10.0 kmh W 12.9 mph20.8 kmh 30.27 in1025.1 mb 0.00 in0.0 mm 0.00 in0.0 mm 0.05 in1.3 mm
08:00 PM 41.9°F5.5°C 36.8°F2.7°C 82% 4.6 mph W7.4 kmh W 11.1 mph17.9 kmh 30.27 in1025.1 mb 0.00 in0.0 mm 0.00 in0.0 mm 0.05 in1.3 mm
08:15 PM 41.9°F5.5°C 37.1°F2.8°C 83% 4.4 mph W7.1 kmh W 9.3 mph15.0 kmh 30.30 in1026.1 mb 0.00 in0.0 mm 0.00 in0.0 mm 0.05 in1.3 mm
08:30 PM 41.9°F5.5°C 37.7°F3.2°C 85% 6.6 mph W10.6 kmh W 14.0 mph22.5 kmh 30.27 in1025.1 mb 0.00 in0.0 mm 0.00 in0.0 mm 0.05 in1.3 mm
08:45 PM 42.1°F5.6°C 38.2°F3.4°C 86% 6.9 mph W11.1 kmh W 12.9 mph20.8 kmh 30.27 in1025.1 mb 0.00 in0.0 mm 0.00 in0.0 mm 0.05 in1.3 mm
09:00 PM 42.1°F5.6°C 38.2°F3.4°C 86% 5.9 mph W9.5 kmh W 9.7 mph15.6 kmh 30.30 in1026.1 mb 0.00 in0.0 mm 0.00 in0.0 mm 0.05 in1.3 mm
09:15 PM 41.9°F5.5°C 38.0°F3.3°C 86% 5.6 mph W9.0 kmh W 9.7 mph15.6 kmh 30.33 in1027.1 mb 0.00 in0.0 mm 0.00 in0.0 mm 0.05 in1.3 mm
09:34 PM 41.9°F5.5°C 38.3°F3.5°C 87% 7.3 mph W11.7 kmh W 8.9 mph14.3 kmh 30.33 in1027.1 mb 0.00 in0.0 mm 0.00 in0.0 mm 0.05 in1.3 mm
09:35 PM 41.9°F5.5°C 38.3°F3.5°C 87% 6.7 mph W10.8 kmh W 8.9 mph14.3 kmh 30.33 in1027.1 mb 0.00 in0.0 mm 0.00 in0.0 mm 0.05 in1.3 mm
09:36 PM 41.9°F5.5°C 38.3°F3.5°C 87% 6.6 mph W10.6 kmh W 8.9 mph14.3 kmh 30.33 in1027.1 mb 0.00 in0.0 mm 0.00 in0.0 mm 0.05 in1.3 mm
09:45 PM 41.9°F5.5°C 38.3°F3.5°C 87% 5.2 mph W8.4 kmh W 14.0 mph22.5 kmh 30.33 in1027.1 mb 0.00 in0.0 mm 0.00 in0.0 mm 0.05 in1.3 mm
10:00 PM 41.9°F5.5°C 38.0°F3.3°C 86% 5.0 mph WSW8.0 kmh WSW 9.7 mph15.6 kmh 30.36 in1028.1 mb 0.00 in0.0 mm 0.00 in0.0 mm 0.05 in1.3 mm
10:15 PM 41.4°F5.2°C 37.5°F3.1°C 86% 4.9 mph W7.9 kmh W 8.6 mph13.8 kmh 30.33 in1027.1 mb 0.00 in0.0 mm 0.00 in0.0 mm 0.05 in1.3 mm
10:30 PM 41.4°F5.2°C 37.5°F3.1°C 86% 6.1 mph W9.8 kmh W 10.4 mph16.7 kmh 30.33 in1027.1 mb 0.00 in0.0 mm 0.00 in0.0 mm 0.05 in1.3 mm
10:45 PM 41.2°F5.1°C 37.6°F3.1°C 87% 7.5 mph W12.1 kmh W 12.9 mph20.8 kmh 30.36 in1028.1 mb 0.00 in0.0 mm 0.00 in0.0 mm 0.05 in1.3 mm
11:00 PM 41.2°F5.1°C 37.6°F3.1°C 87% 7.2 mph W11.6 kmh W 12.5 mph20.1 kmh 30.36 in1028.1 mb 0.00 in0.0 mm 0.00 in0.0 mm 0.05 in1.3 mm
11:15 PM 41.2°F5.1°C 37.6°F3.1°C 87% 6.7 mph W10.8 kmh W 11.8 mph19.0 kmh 30.36 in1028.1 mb 0.00 in0.0 mm 0.00 in0.0 mm 0.05 in1.3 mm
11:30 PM 41.0°F5.0°C 37.4°F3.0°C 87% 6.8 mph SW10.9 kmh SW 12.2 mph19.6 kmh 30.36 in1028.1 mb 0.00 in0.0 mm 0.00 in0.0 mm 0.05 in1.3 mm
11:45 PM 40.6°F4.8°C 37.1°F2.8°C 87% 6.1 mph SW9.8 kmh SW 11.5 mph18.5 kmh 30.36 in1028.1 mb 0.00 in0.0 mm 0.00 in0.0 mm 0.05 in1.3 mm